Terminal Aerodrome Forecast
Issued by NWS

Home | Current Version | Previous Version | Text Only | Print | Product List | Glossary On
Versions: 1 2 3 4 5 6 7 8 9 10 11 12 13 14 15 16 17
602
FTUS43 KAPX 220525
TAFAPN
TAF
KAPN 220525Z 2206/2306 00000KT 6SM BR BKN150
      TEMPO 2207/2211 2SM BR
     FM221400 21006KT P6SM SCT120
     FM230100 20004KT P6SM SCT015 BKN025=

USA.gov is the U.S. government's official web portal to all federal, state and local government web resources and services.